»·PEaware :: N181DJ KSNA-KBUR

N181DJ :: KSNA-KBUR

FLIGHT INFORMATION

Flight Status: Arrived
Operator: Privately registered:
United States
More flights under this callsign
Pilot: Brian H. (29287)
Aircraft: PIPER PA-28 CHEROKEE ARCHER
(PA28)
More flights by this aircraft type
Origin: KSNA John Wayne-Orange Co
United States
Destination: KBUR Bob Hope-Burbank
United States
More flights between these airports :: More routes between these airports
Route: SLI V23 POPPR SMO125R SMO SMO311R SILEX
File this flight plan on PilotEdge
Remarks: TEC route CSTP1
Altitude:
(Current/Filed)
4,000ft
Speed:
(Current/Filed)
110kts
Departed: 29-Sep-20 02:36 PM
Arrived: 29-Sep-20 03:14 PM
Distance/Time
Traveled:
40nm/0:38
Distance/Time
To Go:
Arrived

Flight Plot

Page will automatically refresh every two minutes.


Map Options




Map Legend


Flown Route
Filed Route
Departure Airport
Arrival Airport
Navaid (VOR, NDB)
Fix

Horizontal Profiles

Position Reports

Time Latitude Longitude Heading Altitude Ground
Speed
29-Sep-20 14:18 33.671191 -117.868026 211 61ft 0kts
29-Sep-20 14:19 33.671191 -117.868026 211 61ft 0kts
29-Sep-20 14:20 33.671191 -117.868026 211 61ft 0kts
29-Sep-20 14:21 33.671191 -117.868026 211 61ft 0kts
29-Sep-20 14:22 33.671191 -117.868026 211 61ft 0kts
29-Sep-20 14:23 33.671191 -117.868026 211 61ft 0kts
29-Sep-20 14:24 33.671191 -117.868026 211 61ft 0kts
29-Sep-20 14:25 33.671191 -117.868026 211 61ft 0kts
29-Sep-20 14:26 33.671191 -117.868026 211 61ft 0kts
29-Sep-20 14:27 33.671191 -117.868026 211 61ft 0kts
29-Sep-20 14:28 33.671191 -117.868026 211 61ft 0kts
29-Sep-20 14:29 33.671191 -117.868026 211 61ft 0kts
29-Sep-20 14:30 33.671090 -117.868167 263 61ft 3kts
29-Sep-20 14:31 33.676005 -117.865892 27 61ft 26kts
29-Sep-20 14:32 33.679942 -117.863639 303 61ft 0kts
29-Sep-20 14:33 33.679942 -117.863639 303 61ft 0kts
29-Sep-20 14:34 33.680057 -117.863870 297 61ft 10kts
29-Sep-20 14:35 33.663837 -117.875071 213 495ft 92kts
29-Sep-20 14:36 33.646974 -117.898637 233 1387ft 92kts
29-Sep-20 14:37 33.629563 -117.924185 235 1933ft 117kts
29-Sep-20 14:38 33.634136 -117.958627 317 2426ft 118kts
29-Sep-20 14:39 33.660348 -117.977483 331 2991ft 114kts
29-Sep-20 14:40 33.685104 -117.991960 333 3810ft 96kts
29-Sep-20 14:41 33.710997 -118.008186 331 3980ft 125kts
29-Sep-20 14:42 33.739933 -118.026890 331 3977ft 131kts
29-Sep-20 14:43 33.769060 -118.045713 331 3976ft 131kts
29-Sep-20 14:44 33.786162 -118.079049 287 3976ft 131kts
29-Sep-20 14:45 33.797528 -118.119912 288 3976ft 131kts
29-Sep-20 14:46 33.808561 -118.159298 288 3976ft 132kts
29-Sep-20 14:47 33.820022 -118.200195 288 3976ft 132kts
29-Sep-20 14:48 33.831569 -118.241377 288 3976ft 132kts
29-Sep-20 14:49 33.842574 -118.280055 297 3973ft 132kts
29-Sep-20 14:50 33.867934 -118.309961 317 3976ft 131kts
29-Sep-20 14:51 33.894776 -118.339157 319 3976ft 132kts
29-Sep-20 14:52 33.921446 -118.366769 319 3976ft 132kts
29-Sep-20 14:53 33.946124 -118.392312 319 3976ft 132kts
29-Sep-20 14:54 33.973622 -118.420772 319 3976ft 132kts
29-Sep-20 14:55 33.998521 -118.446539 319 3976ft 132kts
29-Sep-20 14:56 34.025528 -118.470893 326 3976ft 132kts
29-Sep-20 14:57 34.054206 -118.493900 326 3976ft 132kts
29-Sep-20 14:58 34.075140 -118.525589 304 3976ft 132kts
29-Sep-20 14:59 34.093558 -118.559224 303 3976ft 132kts
29-Sep-20 15:00 34.111860 -118.593928 301 3976ft 132kts
29-Sep-20 15:02 34.130288 -118.630345 301 3976ft 132kts
29-Sep-20 15:03 34.148451 -118.666229 301 3976ft 132kts
29-Sep-20 15:04 34.173532 -118.675208 55 3976ft 120kts
29-Sep-20 15:05 34.189057 -118.643960 59 3779ft 120kts
29-Sep-20 15:06 34.201011 -118.611506 86 3689ft 110kts
29-Sep-20 15:07 34.200974 -118.576818 90 3690ft 107kts
29-Sep-20 15:08 34.200593 -118.543623 91 3693ft 107kts
29-Sep-20 15:09 34.199451 -118.510426 90 3417ft 117kts
29-Sep-20 15:10 34.198559 -118.475350 90 2725ft 126kts
29-Sep-20 15:11 34.199451 -118.442697 92 2161ft 90kts
29-Sep-20 15:12 34.198714 -118.413818 86 1443ft 83kts
29-Sep-20 15:13 34.198262 -118.377693 95 991ft 80kts
29-Sep-20 15:14 34.198149 -118.357997 8 712ft 18kts
29-Sep-20 15:15 34.198884 -118.359787 271 718ft 11kts
29-Sep-20 15:16 34.199957 -118.364482 37 727ft 12kts
29-Sep-20 15:17 34.199978 -118.363832 12 727ft 0kts

Navigation Log

Ident Type
Flight plan parsing failed, navigation log unavailable